West Petersburg, Indiana
Current Conditions -  °F | °C
As of 6:35 PM on Saturday 25 Oct 2014 (Local Time) from KDCY Reporting Station
Clear Clear  
Wind Chill: 65°   Ceiling: Unl
Heat Index: 65°   Visibility: 10mi
Dew Point: 55°   Wind: 6mph
Humidity: 70%   Direction: 250°WSW
Pressure: 29.97"   Gusts: NA
Location:  38.4723°N, 87.3105°W
Report Text: KDCY 252335Z AUTO 25005KT 10SM CLR 18/13 A2997 RMK AO2 T01810126
Loading
Personal Weather Stations






























Interactive Weather Map
Tropical Storm Tracking
New forecast layout! Learn more

10-Day Weather Forecast

Advertisements
Track Severe Weather on mobile